sensor_id;sensor_type;location;lat;lon;timestamp;P1;durP1;ratioP1;P2;durP2;ratioP2
44606;SDS011;30315;46.072;14.474;2023-04-02T00:06:53;9.95;;;7.45;;
44606;SDS011;30315;46.072;14.474;2023-04-02T00:11:42;9.40;;;7.65;;
44606;SDS011;30315;46.072;14.474;2023-04-02T00:14:14;10.70;;;8.32;;
44606;SDS011;30315;46.072;14.474;2023-04-02T00:16:50;10.07;;;8.80;;
44606;SDS011;30315;46.072;14.474;2023-04-02T00:19:26;10.52;;;8.25;;
44606;SDS011;30315;46.072;14.474;2023-04-02T00:22:17;11.25;;;8.35;;
44606;SDS011;30315;46.072;14.474;2023-04-02T00:24:51;14.90;;;9.75;;
44606;SDS011;30315;46.072;14.474;2023-04-02T00:27:20;11.15;;;8.93;;
44606;SDS011;30315;46.072;14.474;2023-04-02T00:29:51;10.77;;;9.00;;
44606;SDS011;30315;46.072;14.474;2023-04-02T00:32:23;10.48;;;9.18;;
44606;SDS011;30315;46.072;14.474;2023-04-02T00:34:56;12.82;;;9.18;;
44606;SDS011;30315;46.072;14.474;2023-04-02T00:37:26;11.63;;;10.43;;
44606;SDS011;30315;46.072;14.474;2023-04-02T00:39:57;10.82;;;9.30;;
44606;SDS011;30315;46.072;14.474;2023-04-02T00:42:29;11.13;;;9.77;;
44606;SDS011;30315;46.072;14.474;2023-04-02T00:44:56;12.30;;;9.75;;
44606;SDS011;30315;46.072;14.474;2023-04-02T00:47:26;9.93;;;9.02;;
44606;SDS011;30315;46.072;14.474;2023-04-02T00:50:07;8.82;;;7.47;;
44606;SDS011;30315;46.072;14.474;2023-04-02T00:52:47;11.98;;;7.72;;
44606;SDS011;30315;46.072;14.474;2023-04-02T00:55:22;11.48;;;7.25;;
44606;SDS011;30315;46.072;14.474;2023-04-02T00:57:56;9.55;;;7.53;;
44606;SDS011;30315;46.072;14.474;2023-04-02T01:00:35;8.70;;;7.78;;
44606;SDS011;30315;46.072;14.474;2023-04-02T01:05:43;9.13;;;8.10;;
44606;SDS011;30315;46.072;14.474;2023-04-02T01:11:03;8.93;;;8.13;;
44606;SDS011;30315;46.072;14.474;2023-04-02T01:13:48;9.52;;;7.85;;
44606;SDS011;30315;46.072;14.474;2023-04-02T01:16:41;8.55;;;7.63;;
44606;SDS011;30315;46.072;14.474;2023-04-02T01:25:01;9.40;;;8.43;;
44606;SDS011;30315;46.072;14.474;2023-04-02T01:27:34;10.93;;;8.93;;
44606;SDS011;30315;46.072;14.474;2023-04-02T01:30:07;11.07;;;7.70;;
44606;SDS011;30315;46.072;14.474;2023-04-02T01:32:37;10.05;;;8.13;;
44606;SDS011;30315;46.072;14.474;2023-04-02T01:35:06;8.30;;;7.32;;
44606;SDS011;30315;46.072;14.474;2023-04-02T01:43:16;8.85;;;7.68;;
44606;SDS011;30315;46.072;14.474;2023-04-02T01:45:57;9.13;;;8.13;;
44606;SDS011;30315;46.072;14.474;2023-04-02T01:48:28;8.85;;;7.57;;
44606;SDS011;30315;46.072;14.474;2023-04-02T01:50:57;8.18;;;7.32;;
44606;SDS011;30315;46.072;14.474;2023-04-02T01:53:27;11.00;;;7.22;;
44606;SDS011;30315;46.072;14.474;2023-04-02T01:56:00;8.73;;;7.32;;
44606;SDS011;30315;46.072;14.474;2023-04-02T01:58:29;8.00;;;7.15;;
44606;SDS011;30315;46.072;14.474;2023-04-02T02:01:02;9.77;;;6.70;;
44606;SDS011;30315;46.072;14.474;2023-04-02T02:03:33;10.80;;;7.30;;
44606;SDS011;30315;46.072;14.474;2023-04-02T02:11:11;7.68;;;7.03;;
44606;SDS011;30315;46.072;14.474;2023-04-02T02:13:49;9.00;;;7.32;;
44606;SDS011;30315;46.072;14.474;2023-04-02T02:16:20;7.85;;;7.13;;
44606;SDS011;30315;46.072;14.474;2023-04-02T02:21:51;10.70;;;6.78;;
44606;SDS011;30315;46.072;14.474;2023-04-02T02:27:00;7.13;;;6.43;;
44606;SDS011;30315;46.072;14.474;2023-04-02T02:29:31;7.82;;;6.78;;
44606;SDS011;30315;46.072;14.474;2023-04-02T02:32:03;7.43;;;6.70;;
44606;SDS011;30315;46.072;14.474;2023-04-02T02:34:34;8.68;;;7.43;;
44606;SDS011;30315;46.072;14.474;2023-04-02T02:37:13;7.65;;;6.95;;
44606;SDS011;30315;46.072;14.474;2023-04-02T02:39:45;10.40;;;7.63;;
44606;SDS011;30315;46.072;14.474;2023-04-02T02:42:36;8.57;;;7.70;;
44606;SDS011;30315;46.072;14.474;2023-04-02T02:45:09;8.97;;;7.00;;
44606;SDS011;30315;46.072;14.474;2023-04-02T02:47:41;9.00;;;7.60;;
44606;SDS011;30315;46.072;14.474;2023-04-02T02:50:13;7.50;;;6.80;;
44606;SDS011;30315;46.072;14.474;2023-04-02T02:52:50;7.65;;;6.93;;
44606;SDS011;30315;46.072;14.474;2023-04-02T02:55:32;8.13;;;7.32;;
44606;SDS011;30315;46.072;14.474;2023-04-02T02:58:28;8.57;;;7.32;;
44606;SDS011;30315;46.072;14.474;2023-04-02T03:01:14;10.20;;;6.30;;
44606;SDS011;30315;46.072;14.474;2023-04-02T03:03:45;8.20;;;7.43;;
44606;SDS011;30315;46.072;14.474;2023-04-02T03:06:15;9.35;;;7.78;;
44606;SDS011;30315;46.072;14.474;2023-04-02T03:08:52;7.68;;;6.97;;
44606;SDS011;30315;46.072;14.474;2023-04-02T03:17:09;7.75;;;6.90;;
44606;SDS011;30315;46.072;14.474;2023-04-02T03:19:45;9.70;;;7.55;;
44606;SDS011;30315;46.072;14.474;2023-04-02T03:22:20;8.25;;;7.55;;
44606;SDS011;30315;46.072;14.474;2023-04-02T03:25:20;9.48;;;7.50;;
44606;SDS011;30315;46.072;14.474;2023-04-02T03:28:00;10.02;;;7.65;;
44606;SDS011;30315;46.072;14.474;2023-04-02T03:30:40;8.50;;;7.68;;
44606;SDS011;30315;46.072;14.474;2023-04-02T03:33:30;8.35;;;7.57;;
44606;SDS011;30315;46.072;14.474;2023-04-02T03:36:13;8.02;;;7.38;;
44606;SDS011;30315;46.072;14.474;2023-04-02T03:41:51;8.07;;;7.28;;
44606;SDS011;30315;46.072;14.474;2023-04-02T03:47:13;7.65;;;6.90;;
44606;SDS011;30315;46.072;14.474;2023-04-02T03:50:09;9.48;;;7.68;;
44606;SDS011;30315;46.072;14.474;2023-04-02T03:52:42;7.90;;;7.15;;
44606;SDS011;30315;46.072;14.474;2023-04-02T03:55:14;9.15;;;7.18;;
44606;SDS011;30315;46.072;14.474;2023-04-02T04:03:15;9.15;;;8.15;;
44606;SDS011;30315;46.072;14.474;2023-04-02T04:05:56;7.50;;;6.82;;
44606;SDS011;30315;46.072;14.474;2023-04-02T04:08:33;11.32;;;7.65;;
44606;SDS011;30315;46.072;14.474;2023-04-02T04:11:09;8.30;;;7.50;;
44606;SDS011;30315;46.072;14.474;2023-04-02T04:16:13;9.82;;;6.95;;
44606;SDS011;30315;46.072;14.474;2023-04-02T04:18:52;8.45;;;7.60;;
44606;SDS011;30315;46.072;14.474;2023-04-02T04:21:30;8.18;;;7.47;;
44606;SDS011;30315;46.072;14.474;2023-04-02T04:24:16;8.85;;;7.68;;
44606;SDS011;30315;46.072;14.474;2023-04-02T04:27:04;8.18;;;6.97;;
44606;SDS011;30315;46.072;14.474;2023-04-02T04:29:53;7.22;;;6.40;;
44606;SDS011;30315;46.072;14.474;2023-04-02T04:35:31;9.60;;;7.40;;
44606;SDS011;30315;46.072;14.474;2023-04-02T04:40:43;8.13;;;7.15;;
44606;SDS011;30315;46.072;14.474;2023-04-02T04:43:33;7.80;;;7.10;;
44606;SDS011;30315;46.072;14.474;2023-04-02T04:46:40;8.35;;;7.55;;
44606;SDS011;30315;46.072;14.474;2023-04-02T04:49:17;10.48;;;8.15;;
44606;SDS011;30315;46.072;14.474;2023-04-02T04:51:57;9.57;;;8.60;;
44606;SDS011;30315;46.072;14.474;2023-04-02T04:54:35;9.30;;;8.30;;
44606;SDS011;30315;46.072;14.474;2023-04-02T04:57:15;11.23;;;8.77;;
44606;SDS011;30315;46.072;14.474;2023-04-02T05:02:41;10.35;;;9.25;;
44606;SDS011;30315;46.072;14.474;2023-04-02T05:05:19;9.55;;;8.25;;
44606;SDS011;30315;46.072;14.474;2023-04-02T05:07:52;11.32;;;8.02;;
44606;SDS011;30315;46.072;14.474;2023-04-02T05:13:20;8.50;;;7.63;;
44606;SDS011;30315;46.072;14.474;2023-04-02T05:18:49;7.93;;;7.13;;
44606;SDS011;30315;46.072;14.474;2023-04-02T05:21:33;7.80;;;6.85;;
44606;SDS011;30315;46.072;14.474;2023-04-02T05:24:32;7.35;;;6.75;;
44606;SDS011;30315;46.072;14.474;2023-04-02T05:29:47;8.48;;;7.65;;
44606;SDS011;30315;46.072;14.474;2023-04-02T05:32:36;9.20;;;6.68;;
44606;SDS011;30315;46.072;14.474;2023-04-02T05:35:13;8.02;;;7.22;;
44606;SDS011;30315;46.072;14.474;2023-04-02T05:37:45;8.27;;;7.57;;
44606;SDS011;30315;46.072;14.474;2023-04-02T05:40:17;8.52;;;7.75;;
44606;SDS011;30315;46.072;14.474;2023-04-02T05:42:49;8.95;;;7.72;;
44606;SDS011;30315;46.072;14.474;2023-04-02T05:45:26;8.63;;;7.78;;
44606;SDS011;30315;46.072;14.474;2023-04-02T05:47:59;9.07;;;8.25;;
44606;SDS011;30315;46.072;14.474;2023-04-02T05:50:39;8.60;;;7.90;;
44606;SDS011;30315;46.072;14.474;2023-04-02T05:53:16;9.52;;;8.27;;
44606;SDS011;30315;46.072;14.474;2023-04-02T05:55:52;9.55;;;7.55;;
44606;SDS011;30315;46.072;14.474;2023-04-02T05:58:30;9.38;;;7.70;;
44606;SDS011;30315;46.072;14.474;2023-04-02T06:14:44;8.98;;;8.07;;
44606;SDS011;30315;46.072;14.474;2023-04-02T06:17:17;13.38;;;8.48;;
44606;SDS011;30315;46.072;14.474;2023-04-02T06:19:45;9.43;;;8.32;;
44606;SDS011;30315;46.072;14.474;2023-04-02T06:22:34;9.85;;;8.23;;
44606;SDS011;30315;46.072;14.474;2023-04-02T06:25:48;9.20;;;8.38;;
44606;SDS011;30315;46.072;14.474;2023-04-02T06:28:00;9.27;;;8.20;;
44606;SDS011;30315;46.072;14.474;2023-04-02T06:30:36;9.40;;;8.50;;
44606;SDS011;30315;46.072;14.474;2023-04-02T06:33:08;9.45;;;8.48;;
44606;SDS011;30315;46.072;14.474;2023-04-02T06:35:41;9.50;;;8.60;;
44606;SDS011;30315;46.072;14.474;2023-04-02T06:38:16;8.63;;;7.72;;
44606;SDS011;30315;46.072;14.474;2023-04-02T06:40:47;8.00;;;7.15;;
44606;SDS011;30315;46.072;14.474;2023-04-02T06:43:43;8.10;;;7.32;;
44606;SDS011;30315;46.072;14.474;2023-04-02T06:46:25;7.22;;;6.63;;
44606;SDS011;30315;46.072;14.474;2023-04-02T06:51:46;8.02;;;7.22;;
44606;SDS011;30315;46.072;14.474;2023-04-02T06:54:15;7.95;;;7.15;;
44606;SDS011;30315;46.072;14.474;2023-04-02T06:56:47;7.47;;;6.88;;
44606;SDS011;30315;46.072;14.474;2023-04-02T06:59:33;7.28;;;6.70;;
44606;SDS011;30315;46.072;14.474;2023-04-02T07:02:04;6.65;;;6.07;;
44606;SDS011;30315;46.072;14.474;2023-04-02T07:04:46;9.95;;;6.55;;
44606;SDS011;30315;46.072;14.474;2023-04-02T07:07:15;6.40;;;5.80;;
44606;SDS011;30315;46.072;14.474;2023-04-02T07:09:44;6.78;;;6.18;;
44606;SDS011;30315;46.072;14.474;2023-04-02T07:12:11;5.95;;;5.45;;
44606;SDS011;30315;46.072;14.474;2023-04-02T07:14:40;6.72;;;5.97;;
44606;SDS011;30315;46.072;14.474;2023-04-02T07:17:12;6.18;;;5.63;;
44606;SDS011;30315;46.072;14.474;2023-04-02T07:19:43;6.70;;;5.47;;
44606;SDS011;30315;46.072;14.474;2023-04-02T07:22:17;5.78;;;5.38;;
44606;SDS011;30315;46.072;14.474;2023-04-02T07:24:48;5.50;;;5.03;;
44606;SDS011;30315;46.072;14.474;2023-04-02T07:27:15;4.97;;;4.55;;
44606;SDS011;30315;46.072;14.474;2023-04-02T07:29:42;4.95;;;4.65;;
44606;SDS011;30315;46.072;14.474;2023-04-02T07:32:10;5.60;;;5.10;;
44606;SDS011;30315;46.072;14.474;2023-04-02T07:34:39;6.25;;;5.72;;
44606;SDS011;30315;46.072;14.474;2023-04-02T07:37:08;5.85;;;5.32;;
44606;SDS011;30315;46.072;14.474;2023-04-02T07:39:39;8.65;;;5.93;;
44606;SDS011;30315;46.072;14.474;2023-04-02T07:42:06;6.53;;;5.93;;
44606;SDS011;30315;46.072;14.474;2023-04-02T07:44:36;5.43;;;5.03;;
44606;SDS011;30315;46.072;14.474;2023-04-02T07:47:08;5.15;;;4.68;;
44606;SDS011;30315;46.072;14.474;2023-04-02T07:49:35;5.18;;;4.72;;
44606;SDS011;30315;46.072;14.474;2023-04-02T07:52:02;5.45;;;5.07;;
44606;SDS011;30315;46.072;14.474;2023-04-02T07:54:29;7.80;;;5.75;;
44606;SDS011;30315;46.072;14.474;2023-04-02T07:56:56;5.55;;;5.15;;
44606;SDS011;30315;46.072;14.474;2023-04-02T07:59:23;5.35;;;4.95;;
44606;SDS011;30315;46.072;14.474;2023-04-02T08:01:50;5.47;;;4.82;;
44606;SDS011;30315;46.072;14.474;2023-04-02T08:04:20;7.25;;;5.47;;
44606;SDS011;30315;46.072;14.474;2023-04-02T08:06:48;6.57;;;6.00;;
44606;SDS011;30315;46.072;14.474;2023-04-02T08:09:15;5.72;;;5.32;;
44606;SDS011;30315;46.072;14.474;2023-04-02T08:11:43;5.95;;;5.47;;
44606;SDS011;30315;46.072;14.474;2023-04-02T08:14:11;5.90;;;5.40;;
44606;SDS011;30315;46.072;14.474;2023-04-02T08:16:48;5.72;;;5.32;;
44606;SDS011;30315;46.072;14.474;2023-04-02T08:19:17;5.87;;;5.47;;
44606;SDS011;30315;46.072;14.474;2023-04-02T08:21:45;5.60;;;5.10;;
44606;SDS011;30315;46.072;14.474;2023-04-02T08:24:16;5.38;;;4.97;;
44606;SDS011;30315;46.072;14.474;2023-04-02T08:26:44;5.10;;;4.70;;
44606;SDS011;30315;46.072;14.474;2023-04-02T08:29:13;5.03;;;4.63;;
44606;SDS011;30315;46.072;14.474;2023-04-02T08:31:40;4.53;;;4.20;;
44606;SDS011;30315;46.072;14.474;2023-04-02T08:34:07;4.55;;;4.25;;
44606;SDS011;30315;46.072;14.474;2023-04-02T08:36:37;3.90;;;3.45;;
44606;SDS011;30315;46.072;14.474;2023-04-02T08:39:06;3.92;;;3.45;;
44606;SDS011;30315;46.072;14.474;2023-04-02T08:41:38;4.78;;;4.28;;
44606;SDS011;30315;46.072;14.474;2023-04-02T08:44:21;4.03;;;3.72;;
44606;SDS011;30315;46.072;14.474;2023-04-02T08:47:01;4.78;;;4.38;;
44606;SDS011;30315;46.072;14.474;2023-04-02T08:49:39;4.22;;;3.92;;
44606;SDS011;30315;46.072;14.474;2023-04-02T08:52:28;5.55;;;3.88;;
44606;SDS011;30315;46.072;14.474;2023-04-02T08:54:57;4.05;;;3.75;;
44606;SDS011;30315;46.072;14.474;2023-04-02T08:59:56;4.45;;;4.05;;
44606;SDS011;30315;46.072;14.474;2023-04-02T09:02:36;6.35;;;4.57;;
44606;SDS011;30315;46.072;14.474;2023-04-02T09:05:08;5.13;;;4.65;;
44606;SDS011;30315;46.072;14.474;2023-04-02T09:07:44;5.28;;;4.93;;
44606;SDS011;30315;46.072;14.474;2023-04-02T09:10:14;5.63;;;5.13;;
44606;SDS011;30315;46.072;14.474;2023-04-02T09:12:42;6.28;;;5.35;;
44606;SDS011;30315;46.072;14.474;2023-04-02T09:15:21;5.50;;;5.10;;
44606;SDS011;30315;46.072;14.474;2023-04-02T09:18:03;5.60;;;5.10;;
44606;SDS011;30315;46.072;14.474;2023-04-02T09:20:39;5.20;;;4.78;;
44606;SDS011;30315;46.072;14.474;2023-04-02T09:23:07;6.03;;;5.40;;
44606;SDS011;30315;46.072;14.474;2023-04-02T09:25:43;5.80;;;5.30;;
44606;SDS011;30315;46.072;14.474;2023-04-02T09:28:28;4.50;;;4.13;;
44606;SDS011;30315;46.072;14.474;2023-04-02T09:33:42;6.07;;;5.47;;
44606;SDS011;30315;46.072;14.474;2023-04-02T09:36:19;5.72;;;5.22;;
44606;SDS011;30315;46.072;14.474;2023-04-02T09:39:14;5.57;;;4.90;;
44606;SDS011;30315;46.072;14.474;2023-04-02T09:41:43;4.50;;;4.15;;
44606;SDS011;30315;46.072;14.474;2023-04-02T09:44:27;3.30;;;3.00;;
44606;SDS011;30315;46.072;14.474;2023-04-02T09:47:01;3.28;;;2.45;;
44606;SDS011;30315;46.072;14.474;2023-04-02T09:49:31;2.50;;;2.30;;
44606;SDS011;30315;46.072;14.474;2023-04-02T09:52:06;2.60;;;2.40;;
44606;SDS011;30315;46.072;14.474;2023-04-02T09:54:33;2.67;;;2.30;;
44606;SDS011;30315;46.072;14.474;2023-04-02T09:57:43;2.88;;;2.67;;
44606;SDS011;30315;46.072;14.474;2023-04-02T10:03:06;3.20;;;3.00;;
44606;SDS011;30315;46.072;14.474;2023-04-02T10:05:44;2.80;;;2.60;;
44606;SDS011;30315;46.072;14.474;2023-04-02T10:08:20;3.80;;;2.40;;
44606;SDS011;30315;46.072;14.474;2023-04-02T10:10:58;2.20;;;2.00;;
44606;SDS011;30315;46.072;14.474;2023-04-02T10:16:13;4.97;;;2.50;;
44606;SDS011;30315;46.072;14.474;2023-04-02T10:21:26;5.45;;;2.35;;
44606;SDS011;30315;46.072;14.474;2023-04-02T10:23:56;3.38;;;2.72;;
44606;SDS011;30315;46.072;14.474;2023-04-02T10:30:02;2.47;;;2.33;;
44606;SDS011;30315;46.072;14.474;2023-04-02T10:32:48;4.47;;;3.10;;
44606;SDS011;30315;46.072;14.474;2023-04-02T10:35:31;4.47;;;2.92;;
44606;SDS011;30315;46.072;14.474;2023-04-02T10:52:19;3.15;;;2.08;;
44606;SDS011;30315;46.072;14.474;2023-04-02T10:55:02;1.80;;;1.70;;
44606;SDS011;30315;46.072;14.474;2023-04-02T10:57:42;2.08;;;1.98;;
44606;SDS011;30315;46.072;14.474;2023-04-02T11:02:39;2.95;;;1.38;;
44606;SDS011;30315;46.072;14.474;2023-04-02T11:05:41;5.95;;;2.10;;
44606;SDS011;30315;46.072;14.474;2023-04-02T11:11:12;1.50;;;1.40;;
44606;SDS011;30315;46.072;14.474;2023-04-02T11:16:10;2.45;;;1.10;;
44606;SDS011;30315;46.072;14.474;2023-04-02T11:18:41;1.45;;;1.17;;
44606;SDS011;30315;46.072;14.474;2023-04-02T11:23:59;1.38;;;1.00;;
44606;SDS011;30315;46.072;14.474;2023-04-02T11:29:05;1.63;;;1.23;;
44606;SDS011;30315;46.072;14.474;2023-04-02T11:32:24;1.77;;;1.20;;
44606;SDS011;30315;46.072;14.474;2023-04-02T11:35:01;1.23;;;1.10;;
44606;SDS011;30315;46.072;14.474;2023-04-02T11:37:48;0.98;;;0.82;;
44606;SDS011;30315;46.072;14.474;2023-04-02T11:53:01;2.55;;;1.10;;
44606;SDS011;30315;46.072;14.474;2023-04-02T11:55:30;0.63;;;0.63;;
44606;SDS011;30315;46.072;14.474;2023-04-02T12:12:17;0.80;;;0.80;;
44606;SDS011;30315;46.072;14.474;2023-04-02T12:14:58;0.45;;;0.45;;
44606;SDS011;30315;46.072;14.474;2023-04-02T12:17:33;0.73;;;0.73;;
44606;SDS011;30315;46.072;14.474;2023-04-02T12:22:39;0.60;;;0.60;;
44606;SDS011;30315;46.072;14.474;2023-04-02T12:30:44;0.90;;;0.90;;
44606;SDS011;30315;46.072;14.474;2023-04-02T12:35:46;2.38;;;0.70;;
44606;SDS011;30315;46.072;14.474;2023-04-02T12:38:29;0.80;;;0.80;;
44606;SDS011;30315;46.072;14.474;2023-04-02T12:40:59;0.85;;;0.68;;
44606;SDS011;30315;46.072;14.474;2023-04-02T12:43:30;0.80;;;0.80;;
44606;SDS011;30315;46.072;14.474;2023-04-02T12:48:31;0.50;;;0.50;;
44606;SDS011;30315;46.072;14.474;2023-04-02T12:51:00;0.63;;;0.60;;
44606;SDS011;30315;46.072;14.474;2023-04-02T12:53:31;0.73;;;0.73;;
44606;SDS011;30315;46.072;14.474;2023-04-02T12:56:02;0.80;;;0.70;;
44606;SDS011;30315;46.072;14.474;2023-04-02T12:58:40;0.65;;;0.65;;
44606;SDS011;30315;46.072;14.474;2023-04-02T13:01:20;0.45;;;0.45;;
44606;SDS011;30315;46.072;14.474;2023-04-02T13:04:06;0.68;;;0.65;;
44606;SDS011;30315;46.072;14.474;2023-04-02T13:06:45;2.13;;;0.50;;
44606;SDS011;30315;46.072;14.474;2023-04-02T13:09:34;0.70;;;0.70;;
44606;SDS011;30315;46.072;14.474;2023-04-02T13:12:23;1.35;;;0.70;;
44606;SDS011;30315;46.072;14.474;2023-04-02T13:14:59;2.05;;;0.77;;
44606;SDS011;30315;46.072;14.474;2023-04-02T13:18:00;0.60;;;0.60;;
44606;SDS011;30315;46.072;14.474;2023-04-02T13:20:40;0.57;;;0.57;;
44606;SDS011;30315;46.072;14.474;2023-04-02T13:25:54;0.73;;;0.60;;
44606;SDS011;30315;46.072;14.474;2023-04-02T13:28:53;0.52;;;0.52;;
44606;SDS011;30315;46.072;14.474;2023-04-02T13:31:21;0.57;;;0.57;;
44606;SDS011;30315;46.072;14.474;2023-04-02T13:33:49;0.77;;;0.77;;
44606;SDS011;30315;46.072;14.474;2023-04-02T13:36:16;1.10;;;1.00;;
44606;SDS011;30315;46.072;14.474;2023-04-02T13:38:43;0.50;;;0.50;;
44606;SDS011;30315;46.072;14.474;2023-04-02T13:41:18;0.60;;;0.60;;
44606;SDS011;30315;46.072;14.474;2023-04-02T13:43:53;0.70;;;0.60;;
44606;SDS011;30315;46.072;14.474;2023-04-02T13:46:22;0.50;;;0.50;;
44606;SDS011;30315;46.072;14.474;2023-04-02T13:48:52;0.63;;;0.55;;
44606;SDS011;30315;46.072;14.474;2023-04-02T13:52:06;0.60;;;0.60;;
44606;SDS011;30315;46.072;14.474;2023-04-02T13:54:31;1.60;;;0.80;;
44606;SDS011;30315;46.072;14.474;2023-04-02T13:57:05;0.40;;;0.40;;
44606;SDS011;30315;46.072;14.474;2023-04-02T13:59:32;0.55;;;0.55;;
44606;SDS011;30315;46.072;14.474;2023-04-02T14:02:03;0.52;;;0.52;;
44606;SDS011;30315;46.072;14.474;2023-04-02T14:04:35;0.70;;;0.70;;
44606;SDS011;30315;46.072;14.474;2023-04-02T14:10:04;0.57;;;0.57;;
44606;SDS011;30315;46.072;14.474;2023-04-02T14:15:18;0.60;;;0.60;;
44606;SDS011;30315;46.072;14.474;2023-04-02T14:20:49;0.75;;;0.75;;
44606;SDS011;30315;46.072;14.474;2023-04-02T14:26:19;0.80;;;0.77;;
44606;SDS011;30315;46.072;14.474;2023-04-02T14:39:31;0.50;;;0.50;;
44606;SDS011;30315;46.072;14.474;2023-04-02T14:44:43;0.30;;;0.30;;
44606;SDS011;30315;46.072;14.474;2023-04-02T14:47:17;0.47;;;0.47;;
44606;SDS011;30315;46.072;14.474;2023-04-02T14:49:51;0.60;;;0.60;;
44606;SDS011;30315;46.072;14.474;2023-04-02T14:52:21;0.55;;;0.55;;
44606;SDS011;30315;46.072;14.474;2023-04-02T14:55:00;0.40;;;0.40;;
44606;SDS011;30315;46.072;14.474;2023-04-02T14:57:40;1.55;;;0.32;;
44606;SDS011;30315;46.072;14.474;2023-04-02T15:03:21;0.50;;;0.50;;
44606;SDS011;30315;46.072;14.474;2023-04-02T15:06:01;0.40;;;0.40;;
44606;SDS011;30315;46.072;14.474;2023-04-02T15:08:37;0.50;;;0.50;;
44606;SDS011;30315;46.072;14.474;2023-04-02T15:11:32;0.70;;;0.68;;
44606;SDS011;30315;46.072;14.474;2023-04-02T15:14:20;0.57;;;0.57;;
44606;SDS011;30315;46.072;14.474;2023-04-02T15:16:53;0.70;;;0.70;;
44606;SDS011;30315;46.072;14.474;2023-04-02T15:19:19;0.60;;;0.60;;
44606;SDS011;30315;46.072;14.474;2023-04-02T15:22:03;0.47;;;0.47;;
44606;SDS011;30315;46.072;14.474;2023-04-02T15:30:48;1.58;;;0.50;;
44606;SDS011;30315;46.072;14.474;2023-04-02T15:33:26;0.60;;;0.60;;
44606;SDS011;30315;46.072;14.474;2023-04-02T15:38:53;1.38;;;1.27;;
44606;SDS011;30315;46.072;14.474;2023-04-02T15:41:51;2.33;;;2.22;;
44606;SDS011;30315;46.072;14.474;2023-04-02T15:44:43;0.40;;;0.40;;
44606;SDS011;30315;46.072;14.474;2023-04-02T16:01:56;1.50;;;0.90;;
44606;SDS011;30315;46.072;14.474;2023-04-02T16:04:56;1.02;;;0.80;;
44606;SDS011;30315;46.072;14.474;2023-04-02T16:10:35;0.75;;;0.73;;
44606;SDS011;30315;46.072;14.474;2023-04-02T16:18:54;1.65;;;0.90;;
44606;SDS011;30315;46.072;14.474;2023-04-02T16:21:28;0.45;;;0.45;;
44606;SDS011;30315;46.072;14.474;2023-04-02T16:24:10;0.80;;;0.80;;
44606;SDS011;30315;46.072;14.474;2023-04-02T16:35:01;0.80;;;0.80;;
44606;SDS011;30315;46.072;14.474;2023-04-02T16:38:19;0.77;;;0.77;;
44606;SDS011;30315;46.072;14.474;2023-04-02T16:46:57;2.97;;;1.00;;
44606;SDS011;30315;46.072;14.474;2023-04-02T16:49:48;3.30;;;1.20;;
44606;SDS011;30315;46.072;14.474;2023-04-02T16:52:38;1.20;;;1.10;;
44606;SDS011;30315;46.072;14.474;2023-04-02T16:55:25;0.70;;;0.70;;
44606;SDS011;30315;46.072;14.474;2023-04-02T17:01:07;1.02;;;0.90;;
44606;SDS011;30315;46.072;14.474;2023-04-02T17:09:00;1.80;;;1.70;;
44606;SDS011;30315;46.072;14.474;2023-04-02T17:14:29;1.73;;;1.63;;
44606;SDS011;30315;46.072;14.474;2023-04-02T17:17:02;1.52;;;1.42;;
44606;SDS011;30315;46.072;14.474;2023-04-02T17:19:30;1.63;;;1.50;;
44606;SDS011;30315;46.072;14.474;2023-04-02T17:22:01;3.13;;;2.00;;
44606;SDS011;30315;46.072;14.474;2023-04-02T17:24:40;2.17;;;1.98;;
44606;SDS011;30315;46.072;14.474;2023-04-02T17:27:34;2.00;;;1.80;;
44606;SDS011;30315;46.072;14.474;2023-04-02T17:33:23;2.35;;;1.50;;
44606;SDS011;30315;46.072;14.474;2023-04-02T17:48:46;2.13;;;2.03;;
44606;SDS011;30315;46.072;14.474;2023-04-02T17:51:23;3.75;;;2.17;;
44606;SDS011;30315;46.072;14.474;2023-04-02T17:55:00;3.13;;;2.30;;
44606;SDS011;30315;46.072;14.474;2023-04-02T18:00:18;6.95;;;6.25;;
44606;SDS011;30315;46.072;14.474;2023-04-02T18:05:44;2.92;;;2.70;;
44606;SDS011;30315;46.072;14.474;2023-04-02T18:13:47;3.50;;;3.20;;
44606;SDS011;30315;46.072;14.474;2023-04-02T18:40:40;4.22;;;3.50;;
44606;SDS011;30315;46.072;14.474;2023-04-02T18:51:49;6.25;;;5.28;;
44606;SDS011;30315;46.072;14.474;2023-04-02T18:54:26;6.68;;;5.60;;
44606;SDS011;30315;46.072;14.474;2023-04-02T18:56:55;6.78;;;6.07;;
44606;SDS011;30315;46.072;14.474;2023-04-02T19:10:40;6.13;;;5.10;;
44606;SDS011;30315;46.072;14.474;2023-04-02T19:13:13;7.78;;;5.18;;
44606;SDS011;30315;46.072;14.474;2023-04-02T19:42:37;10.82;;;7.85;;
44606;SDS011;30315;46.072;14.474;2023-04-02T19:48:19;6.70;;;6.03;;
44606;SDS011;30315;46.072;14.474;2023-04-02T19:50:49;4.57;;;3.97;;
44606;SDS011;30315;46.072;14.474;2023-04-02T19:53:17;4.63;;;4.22;;
44606;SDS011;30315;46.072;14.474;2023-04-02T19:55:44;5.40;;;4.90;;
44606;SDS011;30315;46.072;14.474;2023-04-02T19:58:33;5.78;;;5.30;;
44606;SDS011;30315;46.072;14.474;2023-04-02T20:01:00;6.55;;;5.78;;
44606;SDS011;30315;46.072;14.474;2023-04-02T20:03:27;5.00;;;4.60;;
44606;SDS011;30315;46.072;14.474;2023-04-02T20:05:55;4.20;;;3.83;;
44606;SDS011;30315;46.072;14.474;2023-04-02T20:08:25;4.55;;;3.45;;
44606;SDS011;30315;46.072;14.474;2023-04-02T20:10:53;3.85;;;3.25;;
44606;SDS011;30315;46.072;14.474;2023-04-02T20:13:21;3.30;;;3.10;;
44606;SDS011;30315;46.072;14.474;2023-04-02T20:15:47;5.05;;;3.50;;
44606;SDS011;30315;46.072;14.474;2023-04-02T20:18:16;3.20;;;3.00;;
44606;SDS011;30315;46.072;14.474;2023-04-02T20:20:44;4.07;;;3.75;;
44606;SDS011;30315;46.072;14.474;2023-04-02T20:23:12;3.60;;;3.30;;
44606;SDS011;30315;46.072;14.474;2023-04-02T20:25:44;3.83;;;3.50;;
44606;SDS011;30315;46.072;14.474;2023-04-02T20:28:12;3.08;;;2.88;;
44606;SDS011;30315;46.072;14.474;2023-04-02T20:30:39;3.70;;;3.40;;
44606;SDS011;30315;46.072;14.474;2023-04-02T20:33:06;4.93;;;3.75;;
44606;SDS011;30315;46.072;14.474;2023-04-02T20:35:33;4.63;;;3.63;;
44606;SDS011;30315;46.072;14.474;2023-04-02T20:38:02;4.80;;;4.32;;
44606;SDS011;30315;46.072;14.474;2023-04-02T20:40:31;4.07;;;3.75;;
44606;SDS011;30315;46.072;14.474;2023-04-02T20:42:59;3.13;;;2.70;;
44606;SDS011;30315;46.072;14.474;2023-04-02T20:45:26;4.57;;;3.15;;
44606;SDS011;30315;46.072;14.474;2023-04-02T20:47:54;6.03;;;3.55;;
44606;SDS011;30315;46.072;14.474;2023-04-02T20:50:22;3.13;;;2.83;;
44606;SDS011;30315;46.072;14.474;2023-04-02T20:52:49;3.17;;;2.85;;
44606;SDS011;30315;46.072;14.474;2023-04-02T20:55:16;3.67;;;3.00;;
44606;SDS011;30315;46.072;14.474;2023-04-02T20:57:43;4.90;;;3.10;;
44606;SDS011;30315;46.072;14.474;2023-04-02T21:00:10;2.55;;;2.45;;
44606;SDS011;30315;46.072;14.474;2023-04-02T21:02:38;2.50;;;2.30;;
44606;SDS011;30315;46.072;14.474;2023-04-02T21:05:05;2.22;;;2.08;;
44606;SDS011;30315;46.072;14.474;2023-04-02T21:07:33;1.80;;;1.70;;
44606;SDS011;30315;46.072;14.474;2023-04-02T21:09:59;1.42;;;1.35;;
44606;SDS011;30315;46.072;14.474;2023-04-02T21:12:27;1.65;;;1.55;;
44606;SDS011;30315;46.072;14.474;2023-04-02T21:14:53;1.58;;;1.48;;
44606;SDS011;30315;46.072;14.474;2023-04-02T21:17:27;1.90;;;1.80;;
44606;SDS011;30315;46.072;14.474;2023-04-02T21:19:54;1.85;;;1.75;;
44606;SDS011;30315;46.072;14.474;2023-04-02T21:22:21;1.67;;;1.58;;
44606;SDS011;30315;46.072;14.474;2023-04-02T21:24:48;1.50;;;1.40;;